sensor_id;sensor_type;location;lat;lon;timestamp;P1;durP1;ratioP1;P2;durP2;ratioP2
63312;SDS011;49442;45.640;13.812;2023-02-26T00:08:42;7.70;;;2.42;;
63312;SDS011;49442;45.640;13.812;2023-02-26T00:11:08;1.98;;;1.52;;
63312;SDS011;49442;45.640;13.812;2023-02-26T00:13:35;2.75;;;1.58;;
63312;SDS011;49442;45.640;13.812;2023-02-26T00:16:01;3.35;;;1.90;;
63312;SDS011;49442;45.640;13.812;2023-02-26T00:18:29;3.90;;;2.00;;
63312;SDS011;49442;45.640;13.812;2023-02-26T00:20:55;4.03;;;2.03;;
63312;SDS011;49442;45.640;13.812;2023-02-26T00:23:21;1.90;;;1.38;;
63312;SDS011;49442;45.640;13.812;2023-02-26T00:25:48;2.55;;;1.95;;
63312;SDS011;49442;45.640;13.812;2023-02-26T00:28:13;6.93;;;1.92;;
63312;SDS011;49442;45.640;13.812;2023-02-26T00:30:39;2.17;;;1.63;;
63312;SDS011;49442;45.640;13.812;2023-02-26T00:33:05;3.08;;;1.35;;
63312;SDS011;49442;45.640;13.812;2023-02-26T00:35:31;1.63;;;1.17;;
63312;SDS011;49442;45.640;13.812;2023-02-26T00:38:05;2.40;;;1.52;;
63312;SDS011;49442;45.640;13.812;2023-02-26T00:43:13;3.85;;;1.30;;
63312;SDS011;49442;45.640;13.812;2023-02-26T00:48:46;2.78;;;1.27;;
63312;SDS011;49442;45.640;13.812;2023-02-26T00:51:23;3.13;;;1.30;;
63312;SDS011;49442;45.640;13.812;2023-02-26T00:56:44;3.45;;;1.38;;
63312;SDS011;49442;45.640;13.812;2023-02-26T00:59:10;8.60;;;1.20;;
63312;SDS011;49442;45.640;13.812;2023-02-26T01:01:35;2.03;;;1.08;;
63312;SDS011;49442;45.640;13.812;2023-02-26T01:04:01;2.05;;;1.20;;
63312;SDS011;49442;45.640;13.812;2023-02-26T01:06:28;3.53;;;1.20;;
63312;SDS011;49442;45.640;13.812;2023-02-26T01:09:01;1.90;;;1.30;;
63312;SDS011;49442;45.640;13.812;2023-02-26T01:11:29;1.75;;;1.20;;
63312;SDS011;49442;45.640;13.812;2023-02-26T01:13:55;1.27;;;1.00;;
63312;SDS011;49442;45.640;13.812;2023-02-26T01:16:22;3.78;;;1.40;;
63312;SDS011;49442;45.640;13.812;2023-02-26T01:18:55;2.40;;;1.00;;
63312;SDS011;49442;45.640;13.812;2023-02-26T01:21:32;1.50;;;1.08;;
63312;SDS011;49442;45.640;13.812;2023-02-26T01:24:03;1.35;;;0.80;;
63312;SDS011;49442;45.640;13.812;2023-02-26T01:26:32;1.15;;;0.60;;
63312;SDS011;49442;45.640;13.812;2023-02-26T01:28:58;1.08;;;0.68;;
63312;SDS011;49442;45.640;13.812;2023-02-26T01:34:21;2.25;;;0.90;;
63312;SDS011;49442;45.640;13.812;2023-02-26T01:37:06;2.03;;;1.08;;
63312;SDS011;49442;45.640;13.812;2023-02-26T01:40:51;1.60;;;0.80;;
63312;SDS011;49442;45.640;13.812;2023-02-26T01:42:54;0.68;;;0.68;;
63312;SDS011;49442;45.640;13.812;2023-02-26T01:45:31;1.02;;;0.75;;
63312;SDS011;49442;45.640;13.812;2023-02-26T01:50:29;2.73;;;0.67;;
63312;SDS011;49442;45.640;13.812;2023-02-26T01:55:45;1.65;;;1.05;;
63312;SDS011;49442;45.640;13.812;2023-02-26T01:58:14;2.25;;;0.85;;
63312;SDS011;49442;45.640;13.812;2023-02-26T02:00:41;2.08;;;1.13;;
63312;SDS011;49442;45.640;13.812;2023-02-26T02:03:06;0.77;;;0.60;;
63312;SDS011;49442;45.640;13.812;2023-02-26T02:05:34;1.35;;;0.63;;
63312;SDS011;49442;45.640;13.812;2023-02-26T02:08:07;1.40;;;0.65;;
63312;SDS011;49442;45.640;13.812;2023-02-26T02:10:32;0.98;;;0.60;;
63312;SDS011;49442;45.640;13.812;2023-02-26T02:13:06;2.72;;;0.57;;
63312;SDS011;49442;45.640;13.812;2023-02-26T02:15:41;0.70;;;0.60;;
63312;SDS011;49442;45.640;13.812;2023-02-26T02:32:20;1.38;;;0.50;;
63312;SDS011;49442;45.640;13.812;2023-02-26T02:34:48;0.57;;;0.57;;
63312;SDS011;49442;45.640;13.812;2023-02-26T02:37:24;0.77;;;0.45;;
63312;SDS011;49442;45.640;13.812;2023-02-26T02:40:04;0.77;;;0.35;;
63312;SDS011;49442;45.640;13.812;2023-02-26T02:42:48;0.45;;;0.38;;
63312;SDS011;49442;45.640;13.812;2023-02-26T02:48:38;0.60;;;0.50;;
63312;SDS011;49442;45.640;13.812;2023-02-26T02:51:10;1.15;;;0.40;;
63312;SDS011;49442;45.640;13.812;2023-02-26T02:53:52;0.73;;;0.55;;
63312;SDS011;49442;45.640;13.812;2023-02-26T02:56:36;0.55;;;0.40;;
63312;SDS011;49442;45.640;13.812;2023-02-26T02:59:17;0.98;;;0.32;;
63312;SDS011;49442;45.640;13.812;2023-02-26T03:01:48;0.60;;;0.40;;
63312;SDS011;49442;45.640;13.812;2023-02-26T03:04:18;1.10;;;0.50;;
63312;SDS011;49442;45.640;13.812;2023-02-26T03:06:44;0.38;;;0.38;;
63312;SDS011;49442;45.640;13.812;2023-02-26T03:09:14;0.30;;;0.30;;
63312;SDS011;49442;45.640;13.812;2023-02-26T03:11:40;1.92;;;0.43;;
63312;SDS011;49442;45.640;13.812;2023-02-26T03:14:06;2.97;;;0.40;;
63312;SDS011;49442;45.640;13.812;2023-02-26T03:22:10;0.47;;;0.40;;
63312;SDS011;49442;45.640;13.812;2023-02-26T03:24:48;0.50;;;0.35;;
63312;SDS011;49442;45.640;13.812;2023-02-26T03:29:57;2.95;;;0.50;;
63312;SDS011;49442;45.640;13.812;2023-02-26T03:32:33;1.25;;;0.40;;
63312;SDS011;49442;45.640;13.812;2023-02-26T03:35:06;0.75;;;0.50;;
63312;SDS011;49442;45.640;13.812;2023-02-26T03:37:41;0.50;;;0.40;;
63312;SDS011;49442;45.640;13.812;2023-02-26T03:40:12;2.80;;;0.50;;
63312;SDS011;49442;45.640;13.812;2023-02-26T03:42:44;1.58;;;0.40;;
63312;SDS011;49442;45.640;13.812;2023-02-26T03:45:16;0.22;;;0.22;;
63312;SDS011;49442;45.640;13.812;2023-02-26T03:47:52;0.60;;;0.50;;
63312;SDS011;49442;45.640;13.812;2023-02-26T03:50:21;0.45;;;0.30;;
63312;SDS011;49442;45.640;13.812;2023-02-26T03:53:02;4.65;;;0.30;;
63312;SDS011;49442;45.640;13.812;2023-02-26T03:55:39;0.25;;;0.20;;
63312;SDS011;49442;45.640;13.812;2023-02-26T03:58:22;0.77;;;0.47;;
63312;SDS011;49442;45.640;13.812;2023-02-26T04:00:49;0.65;;;0.30;;
63312;SDS011;49442;45.640;13.812;2023-02-26T04:03:56;2.65;;;0.47;;
63312;SDS011;49442;45.640;13.812;2023-02-26T04:06:31;1.15;;;0.30;;
63312;SDS011;49442;45.640;13.812;2023-02-26T04:08:58;0.65;;;0.30;;
63312;SDS011;49442;45.640;13.812;2023-02-26T04:11:25;0.30;;;0.20;;
63312;SDS011;49442;45.640;13.812;2023-02-26T04:13:51;0.85;;;0.30;;
63312;SDS011;49442;45.640;13.812;2023-02-26T04:16:17;0.30;;;0.25;;
63312;SDS011;49442;45.640;13.812;2023-02-26T04:18:43;0.35;;;0.20;;
63312;SDS011;49442;45.640;13.812;2023-02-26T04:21:12;0.20;;;0.20;;
63312;SDS011;49442;45.640;13.812;2023-02-26T04:23:39;0.30;;;0.30;;
63312;SDS011;49442;45.640;13.812;2023-02-26T04:26:05;0.32;;;0.22;;
63312;SDS011;49442;45.640;13.812;2023-02-26T04:28:31;0.20;;;0.20;;
63312;SDS011;49442;45.640;13.812;2023-02-26T04:30:57;0.20;;;0.20;;
63312;SDS011;49442;45.640;13.812;2023-02-26T04:33:23;0.45;;;0.28;;
63312;SDS011;49442;45.640;13.812;2023-02-26T04:35:50;0.13;;;0.13;;
63312;SDS011;49442;45.640;13.812;2023-02-26T04:38:16;0.30;;;0.30;;
63312;SDS011;49442;45.640;13.812;2023-02-26T04:40:42;2.40;;;0.30;;
63312;SDS011;49442;45.640;13.812;2023-02-26T04:43:07;0.20;;;0.20;;
63312;SDS011;49442;45.640;13.812;2023-02-26T04:45:33;0.40;;;0.20;;
63312;SDS011;49442;45.640;13.812;2023-02-26T04:47:59;0.98;;;0.20;;
63312;SDS011;49442;45.640;13.812;2023-02-26T04:50:24;0.20;;;0.20;;
63312;SDS011;49442;45.640;13.812;2023-02-26T04:52:50;0.15;;;0.15;;
63312;SDS011;49442;45.640;13.812;2023-02-26T04:55:16;0.47;;;0.22;;
63312;SDS011;49442;45.640;13.812;2023-02-26T04:57:42;0.60;;;0.22;;
63312;SDS011;49442;45.640;13.812;2023-02-26T05:00:07;0.50;;;0.25;;
63312;SDS011;49442;45.640;13.812;2023-02-26T05:02:33;0.47;;;0.20;;
63312;SDS011;49442;45.640;13.812;2023-02-26T05:04:59;0.03;;;0.03;;
63312;SDS011;49442;45.640;13.812;2023-02-26T05:07:25;0.70;;;0.20;;
63312;SDS011;49442;45.640;13.812;2023-02-26T05:09:51;0.10;;;0.10;;
63312;SDS011;49442;45.640;13.812;2023-02-26T05:12:16;0.28;;;0.20;;
63312;SDS011;49442;45.640;13.812;2023-02-26T05:14:42;0.20;;;0.20;;
63312;SDS011;49442;45.640;13.812;2023-02-26T05:17:07;0.20;;;0.20;;
63312;SDS011;49442;45.640;13.812;2023-02-26T05:19:33;0.30;;;0.30;;
63312;SDS011;49442;45.640;13.812;2023-02-26T05:21:59;1.00;;;0.50;;
63312;SDS011;49442;45.640;13.812;2023-02-26T05:24:25;2.03;;;0.30;;
63312;SDS011;49442;45.640;13.812;2023-02-26T05:26:50;0.20;;;0.20;;
63312;SDS011;49442;45.640;13.812;2023-02-26T05:29:16;0.22;;;0.13;;
63312;SDS011;49442;45.640;13.812;2023-02-26T05:31:42;0.10;;;0.10;;
63312;SDS011;49442;45.640;13.812;2023-02-26T05:34:07;0.10;;;0.10;;
63312;SDS011;49442;45.640;13.812;2023-02-26T05:36:33;0.20;;;0.10;;
63312;SDS011;49442;45.640;13.812;2023-02-26T05:38:59;0.15;;;0.15;;
63312;SDS011;49442;45.640;13.812;2023-02-26T05:41:25;0.20;;;0.20;;
63312;SDS011;49442;45.640;13.812;2023-02-26T05:43:50;0.40;;;0.22;;
63312;SDS011;49442;45.640;13.812;2023-02-26T05:46:16;1.15;;;0.30;;
63312;SDS011;49442;45.640;13.812;2023-02-26T05:48:41;0.10;;;0.10;;
63312;SDS011;49442;45.640;13.812;2023-02-26T05:51:07;1.45;;;0.30;;
63312;SDS011;49442;45.640;13.812;2023-02-26T05:53:34;0.38;;;0.30;;
63312;SDS011;49442;45.640;13.812;2023-02-26T05:55:59;0.17;;;0.17;;
63312;SDS011;49442;45.640;13.812;2023-02-26T05:58:25;0.10;;;0.10;;
63312;SDS011;49442;45.640;13.812;2023-02-26T06:00:50;1.77;;;0.10;;
63312;SDS011;49442;45.640;13.812;2023-02-26T06:03:16;0.10;;;0.10;;
63312;SDS011;49442;45.640;13.812;2023-02-26T06:05:42;0.45;;;0.30;;
63312;SDS011;49442;45.640;13.812;2023-02-26T06:24:37;1.17;;;0.38;;
63312;SDS011;49442;45.640;13.812;2023-02-26T06:27:03;0.20;;;0.13;;
63312;SDS011;49442;45.640;13.812;2023-02-26T06:29:28;0.43;;;0.30;;
63312;SDS011;49442;45.640;13.812;2023-02-26T06:31:54;1.55;;;0.30;;
63312;SDS011;49442;45.640;13.812;2023-02-26T06:34:20;0.85;;;0.60;;
63312;SDS011;49442;45.640;13.812;2023-02-26T06:36:46;0.28;;;0.28;;
63312;SDS011;49442;45.640;13.812;2023-02-26T06:39:12;0.40;;;0.20;;
63312;SDS011;49442;45.640;13.812;2023-02-26T06:41:37;3.10;;;0.30;;
63312;SDS011;49442;45.640;13.812;2023-02-26T06:44:03;6.97;;;0.63;;
63312;SDS011;49442;45.640;13.812;2023-02-26T06:46:29;0.20;;;0.20;;
63312;SDS011;49442;45.640;13.812;2023-02-26T06:48:55;0.30;;;0.10;;
63312;SDS011;49442;45.640;13.812;2023-02-26T06:51:21;0.35;;;0.17;;
63312;SDS011;49442;45.640;13.812;2023-02-26T06:53:46;0.32;;;0.20;;
63312;SDS011;49442;45.640;13.812;2023-02-26T06:56:12;0.20;;;0.13;;
63312;SDS011;49442;45.640;13.812;2023-02-26T06:58:38;0.73;;;0.08;;
63312;SDS011;49442;45.640;13.812;2023-02-26T07:01:04;0.43;;;0.10;;
63312;SDS011;49442;45.640;13.812;2023-02-26T07:03:29;0.35;;;0.20;;
63312;SDS011;49442;45.640;13.812;2023-02-26T07:05:55;0.05;;;0.05;;
63312;SDS011;49442;45.640;13.812;2023-02-26T07:08:21;0.43;;;0.40;;
63312;SDS011;49442;45.640;13.812;2023-02-26T07:10:48;0.60;;;0.20;;
63312;SDS011;49442;45.640;13.812;2023-02-26T07:13:14;0.20;;;0.20;;
63312;SDS011;49442;45.640;13.812;2023-02-26T07:15:41;0.20;;;0.20;;
63312;SDS011;49442;45.640;13.812;2023-02-26T07:18:07;1.05;;;0.40;;
63312;SDS011;49442;45.640;13.812;2023-02-26T07:20:32;2.67;;;0.73;;
63312;SDS011;49442;45.640;13.812;2023-02-26T07:22:58;0.20;;;0.10;;
63312;SDS011;49442;45.640;13.812;2023-02-26T07:25:24;0.28;;;0.10;;
63312;SDS011;49442;45.640;13.812;2023-02-26T07:27:50;1.15;;;0.20;;
63312;SDS011;49442;45.640;13.812;2023-02-26T07:30:16;2.00;;;0.30;;
63312;SDS011;49442;45.640;13.812;2023-02-26T07:32:42;0.82;;;0.30;;
63312;SDS011;49442;45.640;13.812;2023-02-26T07:35:08;0.70;;;0.20;;
63312;SDS011;49442;45.640;13.812;2023-02-26T07:37:34;0.50;;;0.30;;
63312;SDS011;49442;45.640;13.812;2023-02-26T07:40:00;0.20;;;0.20;;
63312;SDS011;49442;45.640;13.812;2023-02-26T07:42:25;0.45;;;0.20;;
63312;SDS011;49442;45.640;13.812;2023-02-26T07:44:51;0.57;;;0.30;;
63312;SDS011;49442;45.640;13.812;2023-02-26T07:47:17;0.20;;;0.20;;
63312;SDS011;49442;45.640;13.812;2023-02-26T07:49:42;0.32;;;0.20;;
63312;SDS011;49442;45.640;13.812;2023-02-26T07:52:08;0.35;;;0.30;;
63312;SDS011;49442;45.640;13.812;2023-02-26T07:54:34;1.95;;;0.30;;
63312;SDS011;49442;45.640;13.812;2023-02-26T07:57:00;3.38;;;0.40;;
63312;SDS011;49442;45.640;13.812;2023-02-26T07:59:26;2.15;;;0.40;;
63312;SDS011;49442;45.640;13.812;2023-02-26T08:01:52;1.48;;;0.22;;
63312;SDS011;49442;45.640;13.812;2023-02-26T08:04:18;1.08;;;0.40;;
63312;SDS011;49442;45.640;13.812;2023-02-26T08:06:44;0.20;;;0.20;;
63312;SDS011;49442;45.640;13.812;2023-02-26T08:09:10;0.52;;;0.32;;
63312;SDS011;49442;45.640;13.812;2023-02-26T08:11:35;2.53;;;0.40;;
63312;SDS011;49442;45.640;13.812;2023-02-26T08:14:04;2.40;;;0.52;;
63312;SDS011;49442;45.640;13.812;2023-02-26T08:16:31;1.27;;;0.30;;
63312;SDS011;49442;45.640;13.812;2023-02-26T08:18:56;0.85;;;0.47;;
63312;SDS011;49442;45.640;13.812;2023-02-26T08:21:22;0.93;;;0.50;;
63312;SDS011;49442;45.640;13.812;2023-02-26T08:23:48;1.50;;;0.30;;
63312;SDS011;49442;45.640;13.812;2023-02-26T08:26:16;1.27;;;0.40;;
63312;SDS011;49442;45.640;13.812;2023-02-26T08:28:42;0.90;;;0.50;;
63312;SDS011;49442;45.640;13.812;2023-02-26T08:31:08;0.20;;;0.20;;
63312;SDS011;49442;45.640;13.812;2023-02-26T08:33:34;2.55;;;0.60;;
63312;SDS011;49442;45.640;13.812;2023-02-26T08:35:59;0.50;;;0.38;;
63312;SDS011;49442;45.640;13.812;2023-02-26T08:38:26;0.65;;;0.47;;
63312;SDS011;49442;45.640;13.812;2023-02-26T08:40:53;2.03;;;0.40;;
63312;SDS011;49442;45.640;13.812;2023-02-26T08:43:19;1.08;;;0.40;;
63312;SDS011;49442;45.640;13.812;2023-02-26T08:45:45;0.38;;;0.38;;
63312;SDS011;49442;45.640;13.812;2023-02-26T08:48:12;0.55;;;0.28;;
63312;SDS011;49442;45.640;13.812;2023-02-26T08:50:37;0.85;;;0.25;;
63312;SDS011;49442;45.640;13.812;2023-02-26T08:53:04;0.32;;;0.25;;
63312;SDS011;49442;45.640;13.812;2023-02-26T08:55:30;0.52;;;0.40;;
63312;SDS011;49442;45.640;13.812;2023-02-26T08:57:56;0.95;;;0.47;;
63312;SDS011;49442;45.640;13.812;2023-02-26T09:00:21;2.47;;;0.43;;
63312;SDS011;49442;45.640;13.812;2023-02-26T09:02:47;3.83;;;0.68;;
63312;SDS011;49442;45.640;13.812;2023-02-26T09:05:13;1.52;;;0.70;;
63312;SDS011;49442;45.640;13.812;2023-02-26T09:07:40;0.38;;;0.30;;
63312;SDS011;49442;45.640;13.812;2023-02-26T09:10:06;3.30;;;0.40;;
63312;SDS011;49442;45.640;13.812;2023-02-26T09:12:32;1.85;;;0.50;;
63312;SDS011;49442;45.640;13.812;2023-02-26T09:15:01;3.25;;;0.70;;
63312;SDS011;49442;45.640;13.812;2023-02-26T09:17:28;2.95;;;0.57;;
63312;SDS011;49442;45.640;13.812;2023-02-26T09:19:54;3.95;;;0.60;;
63312;SDS011;49442;45.640;13.812;2023-02-26T09:22:21;0.50;;;0.50;;
63312;SDS011;49442;45.640;13.812;2023-02-26T09:24:46;0.70;;;0.70;;
63312;SDS011;49442;45.640;13.812;2023-02-26T09:27:12;0.98;;;0.57;;
63312;SDS011;49442;45.640;13.812;2023-02-26T09:29:38;0.68;;;0.52;;
63312;SDS011;49442;45.640;13.812;2023-02-26T09:32:03;2.70;;;0.60;;
63312;SDS011;49442;45.640;13.812;2023-02-26T09:34:32;3.00;;;0.70;;
63312;SDS011;49442;45.640;13.812;2023-02-26T09:36:59;2.08;;;0.68;;
63312;SDS011;49442;45.640;13.812;2023-02-26T09:39:24;1.85;;;0.70;;
63312;SDS011;49442;45.640;13.812;2023-02-26T09:41:51;3.30;;;0.70;;
63312;SDS011;49442;45.640;13.812;2023-02-26T09:46:54;1.17;;;0.57;;
63312;SDS011;49442;45.640;13.812;2023-02-26T09:54:45;0.60;;;0.43;;
63312;SDS011;49442;45.640;13.812;2023-02-26T09:57:21;1.42;;;0.90;;
63312;SDS011;49442;45.640;13.812;2023-02-26T09:59:51;3.53;;;0.80;;
63312;SDS011;49442;45.640;13.812;2023-02-26T10:02:23;4.15;;;0.70;;
63312;SDS011;49442;45.640;13.812;2023-02-26T10:16:15;2.40;;;0.90;;
63312;SDS011;49442;45.640;13.812;2023-02-26T10:18:48;1.08;;;0.75;;
63312;SDS011;49442;45.640;13.812;2023-02-26T10:21:29;5.85;;;0.70;;
63312;SDS011;49442;45.640;13.812;2023-02-26T10:24:02;2.58;;;0.85;;
63312;SDS011;49442;45.640;13.812;2023-02-26T10:27:04;2.67;;;1.08;;
63312;SDS011;49442;45.640;13.812;2023-02-26T10:32:52;5.13;;;1.38;;
63312;SDS011;49442;45.640;13.812;2023-02-26T10:35:28;6.05;;;1.10;;
63312;SDS011;49442;45.640;13.812;2023-02-26T10:37:59;8.00;;;1.60;;
63312;SDS011;49442;45.640;13.812;2023-02-26T10:51:31;14.00;;;2.67;;
63312;SDS011;49442;45.640;13.812;2023-02-26T10:54:04;10.23;;;2.38;;
63312;SDS011;49442;45.640;13.812;2023-02-26T10:56:39;7.03;;;2.45;;
63312;SDS011;49442;45.640;13.812;2023-02-26T10:59:04;10.38;;;1.80;;
63312;SDS011;49442;45.640;13.812;2023-02-26T11:01:30;8.27;;;1.70;;
63312;SDS011;49442;45.640;13.812;2023-02-26T11:04:00;9.60;;;1.40;;
63312;SDS011;49442;45.640;13.812;2023-02-26T11:06:33;6.50;;;2.13;;
63312;SDS011;49442;45.640;13.812;2023-02-26T11:09:04;5.13;;;1.50;;
63312;SDS011;49442;45.640;13.812;2023-02-26T11:11:45;8.45;;;2.10;;
63312;SDS011;49442;45.640;13.812;2023-02-26T11:14:14;8.93;;;1.77;;
63312;SDS011;49442;45.640;13.812;2023-02-26T11:16:44;9.60;;;1.58;;
63312;SDS011;49442;45.640;13.812;2023-02-26T11:19:13;9.90;;;1.65;;
63312;SDS011;49442;45.640;13.812;2023-02-26T11:21:40;3.13;;;1.50;;
63312;SDS011;49442;45.640;13.812;2023-02-26T11:24:20;7.25;;;1.58;;
63312;SDS011;49442;45.640;13.812;2023-02-26T11:27:01;5.00;;;1.30;;
63312;SDS011;49442;45.640;13.812;2023-02-26T11:29:34;4.45;;;1.20;;
63312;SDS011;49442;45.640;13.812;2023-02-26T11:32:22;3.03;;;1.30;;
63312;SDS011;49442;45.640;13.812;2023-02-26T11:34:53;36.97;;;3.33;;
63312;SDS011;49442;45.640;13.812;2023-02-26T11:37:20;2.83;;;1.30;;
63312;SDS011;49442;45.640;13.812;2023-02-26T11:39:54;4.82;;;1.45;;
63312;SDS011;49442;45.640;13.812;2023-02-26T11:42:27;6.28;;;1.38;;
63312;SDS011;49442;45.640;13.812;2023-02-26T11:44:53;6.72;;;1.85;;
63312;SDS011;49442;45.640;13.812;2023-02-26T11:47:23;2.38;;;1.15;;
63312;SDS011;49442;45.640;13.812;2023-02-26T11:49:55;6.57;;;1.10;;
63312;SDS011;49442;45.640;13.812;2023-02-26T11:52:35;7.80;;;1.45;;
63312;SDS011;49442;45.640;13.812;2023-02-26T11:55:17;4.38;;;1.20;;
63312;SDS011;49442;45.640;13.812;2023-02-26T11:57:43;2.90;;;0.98;;
63312;SDS011;49442;45.640;13.812;2023-02-26T12:00:51;1.95;;;1.23;;
63312;SDS011;49442;45.640;13.812;2023-02-26T12:03:10;2.83;;;1.05;;
63312;SDS011;49442;45.640;13.812;2023-02-26T12:05:41;3.20;;;1.02;;
63312;SDS011;49442;45.640;13.812;2023-02-26T12:08:15;3.13;;;1.08;;
63312;SDS011;49442;45.640;13.812;2023-02-26T12:44:16;3.15;;;1.05;;
63312;SDS011;49442;45.640;13.812;2023-02-26T12:49:46;2.72;;;1.67;;
63312;SDS011;49442;45.640;13.812;2023-02-26T13:00:50;2.20;;;1.50;;
63312;SDS011;49442;45.640;13.812;2023-02-26T13:09:17;1.45;;;1.23;;
63312;SDS011;49442;45.640;13.812;2023-02-26T13:17:37;5.80;;;1.77;;
63312;SDS011;49442;45.640;13.812;2023-02-26T13:20:12;3.72;;;1.65;;
63312;SDS011;49442;45.640;13.812;2023-02-26T13:22:46;5.03;;;2.03;;
63312;SDS011;49442;45.640;13.812;2023-02-26T13:25:29;7.90;;;2.00;;
63312;SDS011;49442;45.640;13.812;2023-02-26T13:28:01;7.25;;;2.00;;
63312;SDS011;49442;45.640;13.812;2023-02-26T13:30:42;2.97;;;1.60;;
63312;SDS011;49442;45.640;13.812;2023-02-26T13:35:43;5.47;;;2.22;;
63312;SDS011;49442;45.640;13.812;2023-02-26T13:38:19;5.63;;;1.92;;
63312;SDS011;49442;45.640;13.812;2023-02-26T13:51:34;8.80;;;2.40;;
63312;SDS011;49442;45.640;13.812;2023-02-26T13:54:07;3.85;;;1.90;;
63312;SDS011;49442;45.640;13.812;2023-02-26T13:56:53;5.20;;;2.00;;
63312;SDS011;49442;45.640;13.812;2023-02-26T13:59:53;6.22;;;2.08;;
63312;SDS011;49442;45.640;13.812;2023-02-26T14:05:06;7.30;;;1.90;;
63312;SDS011;49442;45.640;13.812;2023-02-26T14:07:52;4.82;;;1.70;;
63312;SDS011;49442;45.640;13.812;2023-02-26T14:10:25;3.97;;;1.83;;
63312;SDS011;49442;45.640;13.812;2023-02-26T14:13:09;5.85;;;2.63;;
63312;SDS011;49442;45.640;13.812;2023-02-26T14:15:58;4.18;;;2.35;;
63312;SDS011;49442;45.640;13.812;2023-02-26T14:24:04;4.38;;;2.00;;
63312;SDS011;49442;45.640;13.812;2023-02-26T14:26:40;7.00;;;2.03;;
63312;SDS011;49442;45.640;13.812;2023-02-26T14:29:15;4.45;;;2.13;;
63312;SDS011;49442;45.640;13.812;2023-02-26T14:34:25;5.35;;;1.95;;
63312;SDS011;49442;45.640;13.812;2023-02-26T14:37:00;4.18;;;1.63;;
63312;SDS011;49442;45.640;13.812;2023-02-26T14:39:41;4.30;;;1.70;;
63312;SDS011;49442;45.640;13.812;2023-02-26T14:47:44;3.58;;;2.13;;
63312;SDS011;49442;45.640;13.812;2023-02-26T14:50:16;6.20;;;2.25;;
63312;SDS011;49442;45.640;13.812;2023-02-26T15:00:52;3.30;;;1.90;;
63312;SDS011;49442;45.640;13.812;2023-02-26T15:08:57;3.42;;;1.50;;
63312;SDS011;49442;45.640;13.812;2023-02-26T15:14:21;3.90;;;1.60;;
63312;SDS011;49442;45.640;13.812;2023-02-26T15:17:09;3.15;;;1.95;;
63312;SDS011;49442;45.640;13.812;2023-02-26T15:19:57;3.05;;;1.60;;
63312;SDS011;49442;45.640;13.812;2023-02-26T15:27:58;2.05;;;1.65;;
63312;SDS011;49442;45.640;13.812;2023-02-26T15:30:26;4.80;;;1.65;;
63312;SDS011;49442;45.640;13.812;2023-02-26T15:33:01;2.97;;;1.42;;
63312;SDS011;49442;45.640;13.812;2023-02-26T15:35:30;2.67;;;1.60;;
63312;SDS011;49442;45.640;13.812;2023-02-26T15:37:58;1.77;;;1.60;;
63312;SDS011;49442;45.640;13.812;2023-02-26T15:40:26;2.80;;;1.40;;
63312;SDS011;49442;45.640;13.812;2023-02-26T15:42:55;6.68;;;1.60;;
63312;SDS011;49442;45.640;13.812;2023-02-26T15:47:59;2.72;;;1.63;;
63312;SDS011;49442;45.640;13.812;2023-02-26T15:50:28;2.72;;;1.52;;
63312;SDS011;49442;45.640;13.812;2023-02-26T15:53:00;5.47;;;1.60;;
63312;SDS011;49442;45.640;13.812;2023-02-26T15:55:30;4.32;;;1.50;;
63312;SDS011;49442;45.640;13.812;2023-02-26T15:58:02;3.05;;;1.38;;
63312;SDS011;49442;45.640;13.812;2023-02-26T16:00:31;2.38;;;1.45;;
63312;SDS011;49442;45.640;13.812;2023-02-26T16:02:59;2.75;;;1.60;;
63312;SDS011;49442;45.640;13.812;2023-02-26T16:05:25;2.75;;;1.42;;
63312;SDS011;49442;45.640;13.812;2023-02-26T16:07:52;2.00;;;1.30;;
63312;SDS011;49442;45.640;13.812;2023-02-26T16:10:31;1.88;;;1.25;;
63312;SDS011;49442;45.640;13.812;2023-02-26T16:13:02;1.42;;;1.13;;
63312;SDS011;49442;45.640;13.812;2023-02-26T16:15:34;2.70;;;1.67;;
63312;SDS011;49442;45.640;13.812;2023-02-26T16:18:03;2.72;;;1.20;;
63312;SDS011;49442;45.640;13.812;2023-02-26T16:20:35;2.63;;;1.35;;
63312;SDS011;49442;45.640;13.812;2023-02-26T16:23:16;2.67;;;1.50;;
63312;SDS011;49442;45.640;13.812;2023-02-26T16:28:22;2.10;;;1.00;;
63312;SDS011;49442;45.640;13.812;2023-02-26T16:30:52;4.32;;;1.23;;
63312;SDS011;49442;45.640;13.812;2023-02-26T16:33:21;8.52;;;1.80;;
63312;SDS011;49442;45.640;13.812;2023-02-26T16:35:55;2.50;;;1.33;;
63312;SDS011;49442;45.640;13.812;2023-02-26T16:38:44;4.10;;;1.60;;
63312;SDS011;49442;45.640;13.812;2023-02-26T16:41:25;1.75;;;1.10;;
63312;SDS011;49442;45.640;13.812;2023-02-26T16:43:54;2.90;;;1.27;;
63312;SDS011;49442;45.640;13.812;2023-02-26T16:46:43;2.67;;;1.50;;
63312;SDS011;49442;45.640;13.812;2023-02-26T16:51:50;2.60;;;1.05;;
63312;SDS011;49442;45.640;13.812;2023-02-26T16:54:39;2.33;;;1.10;;
63312;SDS011;49442;45.640;13.812;2023-02-26T16:57:19;1.55;;;1.00;;
63312;SDS011;49442;45.640;13.812;2023-02-26T16:59:51;4.75;;;1.40;;
63312;SDS011;49442;45.640;13.812;2023-02-26T17:02:37;1.75;;;1.30;;
63312;SDS011;49442;45.640;13.812;2023-02-26T17:08:00;1.92;;;1.13;;
63312;SDS011;49442;45.640;13.812;2023-02-26T17:10:39;1.10;;;1.00;;
63312;SDS011;49442;45.640;13.812;2023-02-26T17:15:44;2.85;;;1.13;;
63312;SDS011;49442;45.640;13.812;2023-02-26T17:18:11;1.65;;;1.20;;
63312;SDS011;49442;45.640;13.812;2023-02-26T17:20:37;2.13;;;1.05;;
63312;SDS011;49442;45.640;13.812;2023-02-26T17:23:05;4.00;;;1.33;;
63312;SDS011;49442;45.640;13.812;2023-02-26T17:25:43;2.20;;;1.00;;
63312;SDS011;49442;45.640;13.812;2023-02-26T17:28:22;3.65;;;1.25;;
63312;SDS011;49442;45.640;13.812;2023-02-26T17:30:50;3.38;;;1.15;;
63312;SDS011;49442;45.640;13.812;2023-02-26T17:33:16;2.42;;;1.42;;
63312;SDS011;49442;45.640;13.812;2023-02-26T17:35:42;1.27;;;1.05;;
63312;SDS011;49442;45.640;13.812;2023-02-26T17:38:12;2.58;;;0.90;;
63312;SDS011;49442;45.640;13.812;2023-02-26T17:40:39;1.83;;;1.15;;
63312;SDS011;49442;45.640;13.812;2023-02-26T17:43:06;2.88;;;1.10;;
63312;SDS011;49442;45.640;13.812;2023-02-26T17:45:34;1.35;;;0.93;;
63312;SDS011;49442;45.640;13.812;2023-02-26T17:48:01;3.70;;;1.15;;
63312;SDS011;49442;45.640;13.812;2023-02-26T17:50:33;3.10;;;1.13;;
63312;SDS011;49442;45.640;13.812;2023-02-26T17:55:45;1.83;;;0.95;;
63312;SDS011;49442;45.640;13.812;2023-02-26T17:58:25;3.15;;;1.08;;
63312;SDS011;49442;45.640;13.812;2023-02-26T18:00:53;3.70;;;1.00;;
63312;SDS011;49442;45.640;13.812;2023-02-26T18:03:19;2.15;;;1.00;;
63312;SDS011;49442;45.640;13.812;2023-02-26T18:05:46;7.72;;;1.75;;
63312;SDS011;49442;45.640;13.812;2023-02-26T18:08:31;3.13;;;1.63;;
63312;SDS011;49442;45.640;13.812;2023-02-26T18:10:59;3.83;;;1.60;;
63312;SDS011;49442;45.640;13.812;2023-02-26T18:13:26;3.92;;;1.80;;
63312;SDS011;49442;45.640;13.812;2023-02-26T18:15:53;3.50;;;1.50;;
63312;SDS011;49442;45.640;13.812;2023-02-26T18:18:20;2.42;;;1.10;;
63312;SDS011;49442;45.640;13.812;2023-02-26T18:20:47;5.80;;;1.48;;
63312;SDS011;49442;45.640;13.812;2023-02-26T18:23:13;3.65;;;1.73;;
63312;SDS011;49442;45.640;13.812;2023-02-26T18:25:40;4.72;;;1.40;;
63312;SDS011;49442;45.640;13.812;2023-02-26T18:28:15;6.28;;;1.25;;
63312;SDS011;49442;45.640;13.812;2023-02-26T18:30:46;1.75;;;1.33;;
63312;SDS011;49442;45.640;13.812;2023-02-26T18:33:13;1.92;;;1.30;;
63312;SDS011;49442;45.640;13.812;2023-02-26T18:35:41;3.17;;;1.10;;